createdAt,value
2023-03-26T00:00:32.669Z,5.71
2023-03-26T00:01:27.589Z,5.70
2023-03-26T00:02:01.248Z,5.72
2023-03-26T00:02:35.028Z,5.72
2023-03-26T00:03:10.842Z,5.75
2023-03-26T00:03:47.383Z,5.75
2023-03-26T00:04:21.999Z,5.76
2023-03-26T00:04:55.725Z,5.75
2023-03-26T00:05:29.385Z,5.77
2023-03-26T00:06:12.933Z,5.74
2023-03-26T00:06:48.999Z,5.72
2023-03-26T00:07:22.932Z,5.73
2023-03-26T00:07:56.394Z,5.71
2023-03-26T00:08:30.146Z,5.76
2023-03-26T00:09:06.382Z,5.77
2023-03-26T00:09:40.021Z,5.72
2023-03-26T00:10:15.768Z,5.73
2023-03-26T00:10:49.621Z,5.71
2023-03-26T00:11:24.906Z,5.70
2023-03-26T00:11:58.543Z,5.71
2023-03-26T00:12:32.084Z,5.76
2023-03-26T00:13:07.229Z,5.78
2023-03-26T00:13:44.076Z,5.81
2023-03-26T00:14:18.229Z,5.77
2023-03-26T00:14:53.046Z,5.76
2023-03-26T00:15:26.653Z,5.81
2023-03-26T00:16:02.048Z,5.80
2023-03-26T00:16:36.442Z,5.88
2023-03-26T00:17:10.011Z,5.92
2023-03-26T00:17:46.800Z,5.86
2023-03-26T00:18:25.181Z,5.87
2023-03-26T00:19:00.354Z,5.89
2023-03-26T00:19:34.158Z,5.90
2023-03-26T00:20:08.934Z,5.88
2023-03-26T00:20:42.543Z,5.86
2023-03-26T00:21:18.239Z,5.87
2023-03-26T00:21:52.780Z,5.86
2023-03-26T00:22:26.786Z,5.86
2023-03-26T00:23:03.881Z,5.85
2023-03-26T00:23:39.014Z,5.83
2023-03-26T00:24:17.711Z,5.88
2023-03-26T00:24:51.656Z,5.84
2023-03-26T00:25:25.140Z,5.82
2023-03-26T00:25:58.941Z,5.83
2023-03-26T00:26:34.594Z,5.85
2023-03-26T00:27:09.232Z,5.84
2023-03-26T00:27:45.726Z,5.81
2023-03-26T00:28:22.563Z,5.80
2023-03-26T00:28:56.376Z,5.88
2023-03-26T00:29:33.424Z,5.84
2023-03-26T00:30:09.381Z,5.83
2023-03-26T00:30:44.297Z,5.83
2023-03-26T00:31:18.641Z,5.87
2023-03-26T00:31:52.243Z,5.91
2023-03-26T00:32:28.333Z,5.89
2023-03-26T00:33:02.719Z,5.85
2023-03-26T00:33:40.895Z,5.82
2023-03-26T00:34:18.736Z,5.83
2023-03-26T00:34:52.649Z,5.82
2023-03-26T00:35:27.958Z,5.85
2023-03-26T00:36:03.916Z,5.86
2023-03-26T00:36:38.136Z,5.84
2023-03-26T00:37:12.771Z,5.83
2023-03-26T00:37:46.427Z,5.82
2023-03-26T00:38:22.589Z,5.82
2023-03-26T00:38:56.298Z,5.85
2023-03-26T00:39:33.958Z,5.83
2023-03-26T00:40:11.086Z,5.84
2023-03-26T00:40:48.160Z,5.87
2023-03-26T00:41:26.489Z,5.85
2023-03-26T00:42:00.191Z,5.80
2023-03-26T00:42:34.280Z,5.81
2023-03-26T00:43:18.882Z,5.82
2023-03-26T00:43:58.034Z,5.75
2023-03-26T00:44:31.916Z,5.74
2023-03-26T00:45:07.712Z,5.77
2023-03-26T00:45:41.424Z,5.72
2023-03-26T00:46:15.606Z,5.71
2023-03-26T00:46:52.823Z,5.81
2023-03-26T00:47:28.846Z,5.87
2023-03-26T00:48:02.829Z,5.79
2023-03-26T00:49:16.436Z,5.72
2023-03-26T00:49:51.062Z,5.74
2023-03-26T00:50:24.629Z,5.70
2023-03-26T00:50:58.687Z,5.72
2023-03-26T00:51:34.277Z,5.69
2023-03-26T00:52:09.002Z,5.73
2023-03-26T00:52:45.393Z,5.74
2023-03-26T00:53:20.259Z,5.73
2023-03-26T00:53:54.255Z,5.76
2023-03-26T00:54:28.843Z,5.72
2023-03-26T00:55:02.334Z,5.73
2023-03-26T00:55:36.128Z,5.76
2023-03-26T00:56:10.926Z,5.82
2023-03-26T00:56:44.763Z,5.75
2023-03-26T00:57:34.581Z,5.73
2023-03-26T00:58:12.502Z,5.64
2023-03-26T00:58:47.856Z,5.65
2023-03-26T00:59:22.685Z,5.63
2023-03-26T00:59:56.786Z,5.65
2023-03-26T01:00:35.205Z,5.66
2023-03-26T01:01:15.751Z,5.70
2023-03-26T01:01:50.718Z,5.66
2023-03-26T01:02:25.518Z,5.65
2023-03-26T01:02:59.313Z,5.64
2023-03-26T01:03:36.055Z,5.63
2023-03-26T01:04:31.592Z,5.62
2023-03-26T01:05:34.477Z,5.59
2023-03-26T01:06:11.571Z,5.55
2023-03-26T01:06:45.504Z,5.63
2023-03-26T01:07:22.175Z,5.68
2023-03-26T01:07:56.171Z,5.66
2023-03-26T01:08:37.513Z,5.69
2023-03-26T01:09:21.231Z,5.69
2023-03-26T01:09:58.026Z,5.64
2023-03-26T01:10:38.898Z,5.63
2023-03-26T01:11:21.971Z,5.69
2023-03-26T01:11:55.590Z,5.69
2023-03-26T01:12:32.315Z,5.70
2023-03-26T01:13:06.177Z,5.70
2023-03-26T01:13:45.098Z,5.71
2023-03-26T01:14:25.952Z,5.73
2023-03-26T01:15:05.969Z,5.74
2023-03-26T01:15:42.224Z,5.73
2023-03-26T01:16:25.509Z,5.75
2023-03-26T01:17:02.022Z,5.73
2023-03-26T01:17:38.105Z,5.72
2023-03-26T01:18:14.379Z,5.75
2023-03-26T01:18:49.051Z,5.73
2023-03-26T01:19:31.829Z,5.74
2023-03-26T01:20:26.844Z,5.72
2023-03-26T01:21:05.870Z,5.72
2023-03-26T01:21:39.904Z,5.73
2023-03-26T01:22:25.447Z,5.80
2023-03-26T01:23:05.538Z,5.75
2023-03-26T01:23:46.830Z,5.77
2023-03-26T01:24:20.094Z,5.74
2023-03-26T01:24:56.777Z,5.70
2023-03-26T01:25:38.011Z,5.71
2023-03-26T01:26:41.178Z,5.77
2023-03-26T01:27:21.018Z,5.78
2023-03-26T01:27:56.594Z,5.81
2023-03-26T01:28:32.519Z,5.81
2023-03-26T01:29:12.015Z,5.80
2023-03-26T01:29:54.409Z,5.81
2023-03-26T01:30:37.370Z,5.80
2023-03-26T01:31:25.510Z,5.81
2023-03-26T01:32:19.482Z,5.82
2023-03-26T01:32:53.156Z,5.81
2023-03-26T01:33:52.729Z,5.85
2023-03-26T01:35:12.624Z,5.81
2023-03-26T01:35:46.353Z,5.73
2023-03-26T01:36:48.050Z,5.77
2023-03-26T01:37:38.088Z,5.75
2023-03-26T01:38:41.197Z,5.73
2023-03-26T01:39:19.430Z,5.72
2023-03-26T01:39:57.150Z,5.76
2023-03-26T01:40:43.284Z,5.80
2023-03-26T01:41:34.285Z,5.86
2023-03-26T01:42:20.386Z,5.82
2023-03-26T01:43:20.595Z,5.79
2023-03-26T01:44:07.160Z,5.77
2023-03-26T01:44:55.707Z,5.77
2023-03-26T01:45:34.251Z,5.85
2023-03-26T01:46:10.271Z,5.80
2023-03-26T01:46:45.784Z,5.84
2023-03-26T01:47:21.329Z,5.89
2023-03-26T01:47:56.404Z,5.89
2023-03-26T01:48:37.725Z,5.86
2023-03-26T01:50:44.135Z,5.88
2023-03-26T01:51:33.065Z,5.80
2023-03-26T01:52:16.943Z,5.80
2023-03-26T01:52:50.793Z,5.90
2023-03-26T01:53:25.261Z,5.92
2023-03-26T01:53:59.640Z,5.92
2023-03-26T01:54:34.734Z,5.96
2023-03-26T01:55:11.926Z,5.96
2023-03-26T01:56:12.943Z,5.96
2023-03-26T01:57:07.151Z,5.95
2023-03-26T01:57:58.310Z,5.94
2023-03-26T01:58:32.215Z,5.97
2023-03-26T01:59:14.934Z,5.93
2023-03-26T02:00:13.145Z,5.94
2023-03-26T02:00:54.136Z,5.94
2023-03-26T02:01:45.082Z,5.92
2023-03-26T02:02:27.002Z,5.97
2023-03-26T02:03:28.087Z,5.89
2023-03-26T02:04:26.969Z,5.88
2023-03-26T02:05:21.280Z,5.84
2023-03-26T02:06:03.281Z,5.84
2023-03-26T02:06:45.057Z,5.83
2023-03-26T02:07:34.780Z,5.83
2023-03-26T02:08:12.079Z,5.84
2023-03-26T02:08:57.467Z,5.87
2023-03-26T02:09:36.026Z,5.89
2023-03-26T02:10:21.431Z,5.97
2023-03-26T02:10:59.786Z,5.92
2023-03-26T02:11:35.361Z,5.90
2023-03-26T02:12:10.482Z,5.94
2023-03-26T02:12:44.856Z,6.00
2023-03-26T02:13:19.482Z,6.00
2023-03-26T02:13:53.587Z,5.95
2023-03-26T02:14:31.726Z,5.95
2023-03-26T02:15:06.438Z,5.95
2023-03-26T02:15:41.367Z,5.98
2023-03-26T02:16:18.076Z,6.00
2023-03-26T02:16:51.945Z,6.01
2023-03-26T02:17:25.606Z,6.00
2023-03-26T02:18:00.073Z,6.02
2023-03-26T02:18:39.329Z,6.02
2023-03-26T02:19:16.117Z,5.99
2023-03-26T02:19:51.630Z,5.99
2023-03-26T02:20:26.023Z,5.98
2023-03-26T02:20:59.617Z,5.99
2023-03-26T02:21:34.332Z,5.99
2023-03-26T02:22:15.987Z,5.99
2023-03-26T02:22:50.978Z,5.99
2023-03-26T02:23:29.859Z,5.98
2023-03-26T02:24:03.911Z,5.99
2023-03-26T02:24:43.751Z,5.98
2023-03-26T02:25:19.525Z,5.98
2023-03-26T02:25:53.659Z,5.99
2023-03-26T02:26:27.522Z,6.01
2023-03-26T02:27:08.008Z,5.99
2023-03-26T02:27:42.672Z,6.03
2023-03-26T02:28:17.277Z,6.05
2023-03-26T02:28:51.122Z,6.03
2023-03-26T02:29:27.152Z,6.05
2023-03-26T02:30:01.226Z,6.05
2023-03-26T02:30:34.781Z,6.04
2023-03-26T02:31:13.653Z,6.05
2023-03-26T02:31:48.618Z,6.07
2023-03-26T02:32:22.519Z,6.13
2023-03-26T02:32:59.464Z,6.08
2023-03-26T02:33:38.272Z,6.07
2023-03-26T02:34:11.775Z,6.03
2023-03-26T02:34:47.512Z,6.04
2023-03-26T02:35:22.705Z,6.02
2023-03-26T02:36:02.202Z,6.02
2023-03-26T02:36:36.311Z,6.03
2023-03-26T02:37:13.505Z,6.06
2023-03-26T02:37:51.267Z,6.05
2023-03-26T02:38:27.099Z,6.03
2023-03-26T02:39:00.637Z,6.06
2023-03-26T02:39:36.489Z,6.14
2023-03-26T02:40:17.743Z,6.09
2023-03-26T02:40:51.642Z,6.03
2023-03-26T02:41:25.889Z,6.05
2023-03-26T02:42:12.222Z,6.01
2023-03-26T02:42:51.339Z,6.03
2023-03-26T02:43:24.889Z,6.05
2023-03-26T02:43:58.621Z,6.12
2023-03-26T02:44:52.134Z,6.06
2023-03-26T02:45:25.570Z,6.08
2023-03-26T02:46:14.021Z,6.10
2023-03-26T02:47:07.471Z,6.07
2023-03-26T02:48:01.287Z,6.02
2023-03-26T02:49:04.276Z,6.01
2023-03-26T02:49:38.092Z,6.02
2023-03-26T02:50:12.302Z,6.05
2023-03-26T02:51:03.710Z,6.01
2023-03-26T02:51:56.488Z,5.96
2023-03-26T02:52:33.965Z,5.99
2023-03-26T02:53:08.801Z,6.03
2023-03-26T02:53:43.261Z,6.04
2023-03-26T02:54:39.864Z,6.05
2023-03-26T02:55:23.251Z,6.01
2023-03-26T02:56:00.187Z,5.99
2023-03-26T02:56:35.210Z,5.99
2023-03-26T02:57:20.132Z,5.98
2023-03-26T02:58:02.698Z,5.98
2023-03-26T02:58:42.306Z,6.03
2023-03-26T02:59:16.076Z,6.04
2023-03-26T02:59:50.664Z,6.08
2023-03-26T03:00:47.641Z,6.06
2023-03-26T03:01:43.121Z,6.01
2023-03-26T03:02:18.502Z,5.98
2023-03-26T03:02:53.177Z,5.99
2023-03-26T03:03:27.641Z,6.00
2023-03-26T03:04:08.539Z,6.04
2023-03-26T03:04:44.203Z,6.09
2023-03-26T03:05:18.743Z,6.07
2023-03-26T03:05:55.044Z,6.05
2023-03-26T03:06:57.999Z,5.98
2023-03-26T03:07:32.180Z,5.98
2023-03-26T03:08:06.977Z,6.00
2023-03-26T03:08:41.801Z,6.01
2023-03-26T03:09:26.802Z,5.98
2023-03-26T03:10:23.385Z,5.95
2023-03-26T03:11:16.811Z,5.94
2023-03-26T03:11:52.935Z,5.96
2023-03-26T03:12:26.509Z,5.96
2023-03-26T03:12:59.949Z,5.98
2023-03-26T03:13:33.557Z,6.10
2023-03-26T03:14:07.771Z,6.12
2023-03-26T03:14:41.481Z,6.11
2023-03-26T03:15:14.959Z,6.14
2023-03-26T03:15:48.549Z,6.11
2023-03-26T03:16:22.382Z,6.05
2023-03-26T03:16:56.427Z,6.14
2023-03-26T03:17:30.173Z,6.18
2023-03-26T03:18:03.973Z,6.11
2023-03-26T03:18:39.048Z,6.07
2023-03-26T03:19:13.674Z,6.11
2023-03-26T03:19:47.477Z,6.06
2023-03-26T03:20:22.196Z,6.13
2023-03-26T03:20:55.730Z,6.17
2023-03-26T03:21:29.833Z,6.12
2023-03-26T03:22:03.516Z,6.10
2023-03-26T03:22:38.250Z,6.12
2023-03-26T03:23:11.868Z,6.11
2023-03-26T03:23:45.512Z,6.11
2023-03-26T03:24:20.148Z,6.08
2023-03-26T03:24:58.030Z,6.08
2023-03-26T03:25:32.782Z,6.09
2023-03-26T03:26:13.702Z,6.06
2023-03-26T03:26:47.972Z,6.06
2023-03-26T03:27:59.941Z,5.95
2023-03-26T03:28:33.443Z,5.98
2023-03-26T03:29:07.058Z,5.99
2023-03-26T03:29:41.873Z,6.01
2023-03-26T03:30:31.436Z,6.01
2023-03-26T03:31:11.167Z,6.02
2023-03-26T03:31:44.791Z,6.00
2023-03-26T03:32:29.515Z,5.97
2023-03-26T03:33:06.479Z,6.01
2023-03-26T03:33:43.047Z,5.98
2023-03-26T03:34:16.975Z,6.00
2023-03-26T03:34:53.652Z,6.00
2023-03-26T03:35:30.338Z,5.97
2023-03-26T03:36:20.436Z,5.96
2023-03-26T03:36:55.563Z,5.95
2023-03-26T03:37:38.836Z,5.93
2023-03-26T03:38:12.495Z,5.96
2023-03-26T03:38:52.198Z,6.07
2023-03-26T03:39:26.857Z,6.03
2023-03-26T03:40:00.561Z,5.97
2023-03-26T03:40:36.376Z,5.93
2023-03-26T03:41:11.738Z,5.95
2023-03-26T03:41:49.522Z,5.97
2023-03-26T03:42:23.163Z,5.99
2023-03-26T03:42:58.420Z,5.98
2023-03-26T03:43:38.488Z,5.99
2023-03-26T03:44:18.960Z,5.97
2023-03-26T03:44:53.195Z,6.00
2023-03-26T03:45:47.663Z,5.97
2023-03-26T03:46:45.022Z,6.09
2023-03-26T03:47:18.714Z,6.06
2023-03-26T03:47:54.309Z,6.02
2023-03-26T03:48:33.678Z,6.06
2023-03-26T03:49:07.235Z,6.00
2023-03-26T03:49:42.685Z,6.02
2023-03-26T03:50:16.589Z,6.05
2023-03-26T03:51:00.831Z,6.06
2023-03-26T03:51:39.019Z,6.02
2023-03-26T03:52:21.084Z,6.01
2023-03-26T03:52:56.048Z,5.98
2023-03-26T03:53:29.666Z,6.01
2023-03-26T03:54:05.385Z,6.02
2023-03-26T03:54:57.933Z,6.11
2023-03-26T03:55:53.552Z,6.05
2023-03-26T03:56:29.353Z,5.98
2023-03-26T03:57:24.364Z,5.96
2023-03-26T03:58:06.377Z,5.96
2023-03-26T03:58:41.170Z,5.94
2023-03-26T03:59:18.316Z,5.88
2023-03-26T03:59:52.252Z,5.87
2023-03-26T04:00:26.205Z,5.87
2023-03-26T04:01:09.568Z,5.92
2023-03-26T04:02:01.715Z,5.86
2023-03-26T04:02:43.176Z,5.89
2023-03-26T04:03:18.149Z,5.91
2023-03-26T04:03:51.875Z,5.89
2023-03-26T04:04:27.086Z,5.88
2023-03-26T04:05:11.777Z,5.88
2023-03-26T04:05:55.393Z,5.85
2023-03-26T04:06:30.521Z,5.84
2023-03-26T04:07:06.369Z,5.86
2023-03-26T04:07:53.409Z,5.85
2023-03-26T04:08:30.433Z,5.84
2023-03-26T04:09:04.147Z,5.84
2023-03-26T04:09:37.987Z,5.87
2023-03-26T04:10:17.908Z,5.90
2023-03-26T04:11:10.087Z,5.91
2023-03-26T04:12:07.021Z,5.97
2023-03-26T04:12:48.509Z,5.95
2023-03-26T04:13:24.237Z,5.97
2023-03-26T04:14:17.981Z,5.89
2023-03-26T04:15:14.269Z,5.85
2023-03-26T04:15:47.955Z,5.84
2023-03-26T04:16:21.886Z,5.86
2023-03-26T04:16:55.548Z,5.89
2023-03-26T04:17:30.841Z,5.94
2023-03-26T04:18:04.905Z,5.96
2023-03-26T04:18:38.669Z,5.94
2023-03-26T04:19:16.629Z,5.86
2023-03-26T04:19:53.149Z,5.94
2023-03-26T04:20:34.100Z,5.94
2023-03-26T04:21:08.011Z,5.94
2023-03-26T04:21:43.046Z,5.93
2023-03-26T04:22:19.952Z,5.94
2023-03-26T04:23:00.928Z,6.00
2023-03-26T04:23:34.925Z,5.96
2023-03-26T04:24:26.487Z,5.90
2023-03-26T04:25:21.611Z,5.88
2023-03-26T04:26:13.672Z,5.90
2023-03-26T04:27:15.105Z,5.91
2023-03-26T04:27:49.216Z,5.88
2023-03-26T04:28:47.013Z,5.87
2023-03-26T04:29:43.050Z,5.86
2023-03-26T04:30:21.450Z,5.85
2023-03-26T04:31:04.726Z,5.89
2023-03-26T04:31:43.380Z,5.88
2023-03-26T04:32:34.543Z,5.87
2023-03-26T04:33:15.695Z,5.88
2023-03-26T04:33:55.847Z,5.91
2023-03-26T04:34:30.196Z,5.97
2023-03-26T04:35:23.972Z,5.90
2023-03-26T04:36:04.404Z,5.90
2023-03-26T04:36:42.602Z,5.91
2023-03-26T04:37:28.668Z,5.90
2023-03-26T04:38:17.070Z,5.89
2023-03-26T04:38:56.230Z,5.90
2023-03-26T04:39:34.275Z,5.89
2023-03-26T04:40:47.719Z,5.88
2023-03-26T04:41:26.603Z,5.87
2023-03-26T04:42:03.996Z,5.90
2023-03-26T04:42:46.443Z,5.91
2023-03-26T04:43:37.237Z,5.89
2023-03-26T04:44:24.604Z,5.87
2023-03-26T04:45:06.069Z,5.87
2023-03-26T04:45:39.832Z,5.89
2023-03-26T04:46:23.888Z,5.93
2023-03-26T04:47:06.207Z,5.90
2023-03-26T04:47:46.840Z,5.93
2023-03-26T04:48:22.125Z,6.06
2023-03-26T04:48:55.841Z,5.98
2023-03-26T04:49:29.443Z,5.98
2023-03-26T04:50:07.150Z,5.98
2023-03-26T04:50:45.413Z,5.99
2023-03-26T04:51:24.498Z,6.04
2023-03-26T04:51:58.214Z,6.00
2023-03-26T04:52:57.484Z,5.97
2023-03-26T04:54:00.746Z,5.93
2023-03-26T04:54:38.155Z,5.93
2023-03-26T04:55:30.026Z,5.96
2023-03-26T04:56:15.250Z,5.93
2023-03-26T04:57:16.691Z,5.91
2023-03-26T04:57:58.095Z,5.94
2023-03-26T04:59:01.865Z,5.93
2023-03-26T04:59:37.410Z,5.91
2023-03-26T05:00:19.008Z,5.92
2023-03-26T05:00:57.730Z,5.87
2023-03-26T05:01:32.372Z,5.83
2023-03-26T05:02:07.038Z,5.84
2023-03-26T05:02:54.036Z,5.92
2023-03-26T05:03:32.657Z,5.88
2023-03-26T05:04:09.422Z,5.90
2023-03-26T05:04:44.050Z,5.93
2023-03-26T05:05:18.435Z,5.92
2023-03-26T05:05:52.260Z,5.93
2023-03-26T05:06:28.871Z,5.94
2023-03-26T05:07:03.298Z,5.99
2023-03-26T05:07:48.901Z,6.05
2023-03-26T05:08:23.095Z,6.02
2023-03-26T05:08:56.786Z,5.98
2023-03-26T05:09:53.471Z,5.98
2023-03-26T05:10:40.160Z,5.93
2023-03-26T05:11:19.560Z,5.91
2023-03-26T05:11:53.318Z,6.04
2023-03-26T05:12:26.794Z,6.10
2023-03-26T05:13:04.837Z,6.02
2023-03-26T05:13:43.182Z,5.95
2023-03-26T05:14:19.519Z,5.95
2023-03-26T05:14:54.457Z,5.96
2023-03-26T05:15:37.286Z,5.98
2023-03-26T05:16:14.764Z,6.03
2023-03-26T05:16:55.111Z,6.13
2023-03-26T05:17:31.276Z,6.19
2023-03-26T05:18:05.046Z,6.15
2023-03-26T05:18:43.607Z,6.09
2023-03-26T05:19:17.164Z,6.01
2023-03-26T05:19:52.291Z,6.00
2023-03-26T05:20:29.896Z,5.99
2023-03-26T05:21:03.989Z,5.99
2023-03-26T05:21:38.181Z,5.99
2023-03-26T05:22:14.449Z,6.02
2023-03-26T05:23:08.301Z,6.02
2023-03-26T05:23:55.711Z,6.06
2023-03-26T05:24:29.447Z,6.06
2023-03-26T05:25:03.404Z,6.11
2023-03-26T05:25:37.227Z,6.06
2023-03-26T05:26:13.158Z,6.03
2023-03-26T05:26:47.010Z,6.03
2023-03-26T05:27:21.528Z,6.03
2023-03-26T05:27:55.162Z,6.05
2023-03-26T05:28:31.339Z,6.05
2023-03-26T05:29:26.145Z,6.08
2023-03-26T05:30:02.362Z,6.13
2023-03-26T05:30:37.056Z,6.15
2023-03-26T05:31:11.064Z,6.14
2023-03-26T05:31:45.901Z,6.10
2023-03-26T05:32:19.392Z,6.07
2023-03-26T05:32:58.546Z,6.07
2023-03-26T05:33:35.743Z,6.05
2023-03-26T05:34:15.702Z,6.04
2023-03-26T05:34:49.341Z,6.04
2023-03-26T05:35:23.055Z,6.09
2023-03-26T05:36:09.742Z,6.13
2023-03-26T05:36:44.235Z,6.20
2023-03-26T05:37:32.392Z,6.16
2023-03-26T05:38:12.072Z,6.16
2023-03-26T05:38:50.094Z,6.26
2023-03-26T05:39:41.474Z,6.20
2023-03-26T05:40:23.640Z,6.18
2023-03-26T05:41:17.018Z,6.19
2023-03-26T05:41:50.869Z,6.25
2023-03-26T05:42:25.002Z,6.28
2023-03-26T05:43:09.827Z,6.28
2023-03-26T05:43:52.234Z,6.27
2023-03-26T05:44:30.035Z,6.29
2023-03-26T05:45:08.765Z,6.41
2023-03-26T05:45:42.269Z,6.39
2023-03-26T05:46:32.153Z,6.35
2023-03-26T05:47:06.053Z,6.36
2023-03-26T05:47:40.516Z,6.36
2023-03-26T05:48:17.343Z,6.44
2023-03-26T05:48:52.293Z,6.42
2023-03-26T05:49:27.080Z,6.43
2023-03-26T05:50:01.364Z,6.45
2023-03-26T05:50:36.196Z,6.48
2023-03-26T05:51:10.034Z,6.50
2023-03-26T05:51:46.403Z,6.50
2023-03-26T05:52:38.354Z,6.49
2023-03-26T05:53:29.998Z,6.48
2023-03-26T05:54:21.725Z,6.49
2023-03-26T05:55:13.806Z,6.51
2023-03-26T05:56:13.594Z,6.41
2023-03-26T05:57:05.897Z,6.39
2023-03-26T05:57:57.776Z,6.36
2023-03-26T05:58:57.704Z,6.43
2023-03-26T05:59:56.288Z,6.42
2023-03-26T06:00:49.046Z,6.35
2023-03-26T06:01:25.872Z,6.36
2023-03-26T06:02:29.795Z,6.32
2023-03-26T06:03:39.948Z,6.38
2023-03-26T06:04:25.033Z,6.34
2023-03-26T06:05:32.725Z,6.36
2023-03-26T06:06:28.145Z,6.35
2023-03-26T06:07:04.227Z,6.34
2023-03-26T06:07:38.025Z,6.34
2023-03-26T06:08:19.770Z,6.36
2023-03-26T06:09:00.902Z,6.34
2023-03-26T06:09:40.201Z,6.37
2023-03-26T06:10:18.105Z,6.40
2023-03-26T06:11:04.226Z,6.45
2023-03-26T06:11:42.131Z,6.47
2023-03-26T06:12:16.082Z,6.49
2023-03-26T06:12:50.480Z,6.56
2023-03-26T06:13:24.211Z,6.60
2023-03-26T06:13:59.501Z,6.60
2023-03-26T06:14:33.545Z,6.60
2023-03-26T06:15:16.546Z,6.61
2023-03-26T06:15:54.092Z,6.63
2023-03-26T06:16:48.208Z,6.62
2023-03-26T06:17:27.272Z,6.64
2023-03-26T06:18:21.129Z,6.65
2023-03-26T06:19:26.664Z,6.66
2023-03-26T06:20:09.559Z,6.68
2023-03-26T06:20:46.726Z,6.66
2023-03-26T06:21:31.512Z,6.63
2023-03-26T06:22:12.566Z,6.66
2023-03-26T06:23:14.978Z,6.62
2023-03-26T06:24:08.339Z,6.57
2023-03-26T06:25:08.602Z,6.57
2023-03-26T06:26:20.942Z,6.58
2023-03-26T06:27:40.602Z,6.67
2023-03-26T06:28:42.806Z,6.63
2023-03-26T06:29:41.303Z,6.62
2023-03-26T06:30:41.102Z,6.66
2023-03-26T06:31:33.121Z,6.72
2023-03-26T06:32:28.572Z,6.74
2023-03-26T06:33:08.241Z,6.74
2023-03-26T06:33:49.331Z,6.76
2023-03-26T06:34:23.476Z,6.77
2023-03-26T06:34:57.090Z,6.78
2023-03-26T06:35:31.615Z,6.80
2023-03-26T06:36:05.748Z,6.83
2023-03-26T06:36:39.453Z,6.85
2023-03-26T06:37:13.274Z,6.90
2023-03-26T06:37:47.971Z,6.94
2023-03-26T06:38:21.950Z,6.98
2023-03-26T06:38:55.681Z,6.98
2023-03-26T06:39:29.444Z,6.99
2023-03-26T06:40:21.939Z,7.03
2023-03-26T06:41:30.100Z,7.03
2023-03-26T06:42:10.667Z,6.96
2023-03-26T06:43:06.987Z,6.96
2023-03-26T06:43:56.035Z,6.98
2023-03-26T06:44:48.055Z,7.00
2023-03-26T06:45:51.983Z,6.93
2023-03-26T06:46:44.430Z,6.95
2023-03-26T06:47:20.762Z,6.96
2023-03-26T06:48:14.369Z,7.02
2023-03-26T06:49:04.335Z,7.05
2023-03-26T06:50:16.121Z,7.01
2023-03-26T06:51:32.536Z,7.03
2023-03-26T06:53:00.725Z,7.04
2023-03-26T06:54:02.805Z,7.11
2023-03-26T06:54:56.639Z,7.05
2023-03-26T06:55:49.026Z,7.00
2023-03-26T06:56:41.331Z,7.07
2023-03-26T06:57:38.356Z,7.11
2023-03-26T06:58:30.705Z,7.07
2023-03-26T06:59:30.264Z,7.09
2023-03-26T07:00:22.550Z,7.11
2023-03-26T07:01:14.579Z,7.13
2023-03-26T07:02:06.633Z,7.17
2023-03-26T07:02:59.222Z,7.21
2023-03-26T07:03:53.409Z,7.25
2023-03-26T07:05:27.984Z,7.31
2023-03-26T07:06:20.176Z,7.28
2023-03-26T07:06:57.002Z,7.31
2023-03-26T07:07:49.246Z,7.36
2023-03-26T07:08:46.247Z,7.29
2023-03-26T07:09:34.612Z,7.34
2023-03-26T07:10:37.399Z,7.34
2023-03-26T07:11:22.583Z,7.32
2023-03-26T07:12:15.622Z,7.34
2023-03-26T07:12:49.670Z,7.37
2023-03-26T07:13:47.848Z,7.46
2023-03-26T07:14:40.279Z,7.45
2023-03-26T07:15:31.183Z,7.41
2023-03-26T07:16:53.183Z,7.36
2023-03-26T07:17:39.358Z,7.38
2023-03-26T07:18:22.484Z,7.40
2023-03-26T07:18:56.975Z,7.44
2023-03-26T07:19:36.552Z,7.50
2023-03-26T07:20:11.128Z,7.54
2023-03-26T07:20:46.305Z,7.59
2023-03-26T07:21:21.800Z,7.63
2023-03-26T07:21:55.747Z,7.65
2023-03-26T07:22:48.539Z,7.72
2023-03-26T07:23:45.501Z,7.75
2023-03-26T07:24:23.850Z,7.83
2023-03-26T07:25:09.508Z,7.90
2023-03-26T07:25:56.147Z,7.96
2023-03-26T07:27:06.856Z,8.05
2023-03-26T07:28:09.333Z,8.15
2023-03-26T07:29:28.609Z,7.99
2023-03-26T07:30:22.601Z,7.98
2023-03-26T07:31:16.443Z,8.04
2023-03-26T07:32:28.396Z,8.11
2023-03-26T07:33:31.984Z,8.14
2023-03-26T07:34:22.584Z,8.15
2023-03-26T07:35:53.565Z,8.07
2023-03-26T07:37:30.953Z,8.12
2023-03-26T07:38:37.232Z,8.11
2023-03-26T07:39:41.772Z,8.15
2023-03-26T07:40:33.710Z,8.16
2023-03-26T07:41:30.028Z,8.10
2023-03-26T07:42:27.654Z,8.11
2023-03-26T07:43:52.249Z,8.12
2023-03-26T07:45:17.720Z,8.14
2023-03-26T07:46:12.383Z,8.14
2023-03-26T07:46:57.388Z,8.13
2023-03-26T07:47:43.178Z,8.20
2023-03-26T07:48:29.914Z,8.33
2023-03-26T07:49:15.434Z,8.26
2023-03-26T07:50:08.537Z,8.27
2023-03-26T07:51:03.654Z,8.34
2023-03-26T07:51:55.527Z,8.26
2023-03-26T07:52:51.167Z,8.15
2023-03-26T07:53:37.703Z,8.18
2023-03-26T07:54:29.495Z,8.18
2023-03-26T07:55:03.738Z,8.22
2023-03-26T07:56:19.504Z,8.25
2023-03-26T07:57:55.783Z,8.25
2023-03-26T07:59:01.067Z,8.30
2023-03-26T08:00:01.605Z,8.29
2023-03-26T08:01:23.696Z,8.22
2023-03-26T08:02:27.424Z,8.24
2023-03-26T08:03:16.772Z,8.30
2023-03-26T08:04:29.921Z,8.30
2023-03-26T08:05:32.600Z,8.28
2023-03-26T08:06:42.398Z,8.32
2023-03-26T08:07:53.273Z,8.40
2023-03-26T08:08:46.628Z,8.39
2023-03-26T08:10:33.465Z,8.43
2023-03-26T08:11:40.144Z,8.48
2023-03-26T08:12:57.972Z,8.56
2023-03-26T08:14:14.114Z,8.68
2023-03-26T08:15:04.237Z,8.84
2023-03-26T08:16:05.790Z,9.13
2023-03-26T08:16:48.664Z,9.41
2023-03-26T08:17:39.677Z,9.69
2023-03-26T08:18:39.019Z,10.06
2023-03-26T08:19:12.993Z,10.48
2023-03-26T08:19:58.257Z,10.61
2023-03-26T08:20:41.842Z,10.72
2023-03-26T08:21:29.381Z,10.78
2023-03-26T08:22:26.546Z,10.94
2023-03-26T08:23:14.041Z,11.05
2023-03-26T08:24:19.643Z,11.21
2023-03-26T08:25:19.035Z,11.41
2023-03-26T08:26:33.916Z,11.58
2023-03-26T08:27:38.926Z,11.74
2023-03-26T08:28:28.864Z,11.75
2023-03-26T08:29:30.522Z,11.73
2023-03-26T08:30:24.374Z,11.86
2023-03-26T08:31:04.161Z,11.81
2023-03-26T08:31:41.631Z,11.80
2023-03-26T08:32:17.557Z,11.79
2023-03-26T08:33:12.330Z,11.82
2023-03-26T08:33:46.052Z,11.86
2023-03-26T08:34:19.919Z,11.86
2023-03-26T08:34:53.948Z,11.77
2023-03-26T08:35:28.714Z,11.70
2023-03-26T08:36:02.670Z,11.64
2023-03-26T08:36:37.160Z,11.69
2023-03-26T08:37:10.950Z,11.79
2023-03-26T08:37:45.535Z,11.78
2023-03-26T08:38:21.315Z,11.80
2023-03-26T08:38:57.962Z,11.81
2023-03-26T08:39:32.561Z,11.73
2023-03-26T08:40:07.584Z,11.58
2023-03-26T08:41:12.203Z,11.46
2023-03-26T08:42:23.872Z,11.34
2023-03-26T08:43:27.921Z,11.30
2023-03-26T08:44:28.302Z,11.08
2023-03-26T08:45:21.985Z,10.98
2023-03-26T08:46:29.283Z,10.90
2023-03-26T08:47:20.967Z,10.67
2023-03-26T08:48:23.277Z,10.63
2023-03-26T08:49:47.011Z,10.54
2023-03-26T08:50:43.275Z,10.36
2023-03-26T08:51:48.428Z,10.30
2023-03-26T08:52:31.959Z,10.25
2023-03-26T08:53:44.607Z,10.24
2023-03-26T08:54:27.921Z,10.14
2023-03-26T08:55:29.418Z,10.25
2023-03-26T08:56:22.877Z,10.25
2023-03-26T08:57:16.458Z,10.21
2023-03-26T08:57:56.974Z,10.06
2023-03-26T08:58:52.714Z,10.00
2023-03-26T08:59:54.289Z,9.86
2023-03-26T09:00:53.739Z,9.91
2023-03-26T09:01:57.928Z,9.87
2023-03-26T09:02:55.845Z,9.91
2023-03-26T09:04:12.244Z,9.93
2023-03-26T09:05:07.827Z,9.95
2023-03-26T09:05:51.648Z,10.02
2023-03-26T09:07:07.932Z,10.11
2023-03-26T09:08:09.955Z,10.14
2023-03-26T09:09:19.129Z,10.06
2023-03-26T09:10:18.109Z,9.90
2023-03-26T09:11:17.245Z,9.98
2023-03-26T09:12:25.005Z,9.98
2023-03-26T09:13:22.822Z,9.84
2023-03-26T09:14:01.660Z,9.79
2023-03-26T09:14:56.737Z,9.91
2023-03-26T09:15:54.779Z,9.79
2023-03-26T09:17:04.678Z,9.79
2023-03-26T09:17:58.152Z,9.79
2023-03-26T09:18:48.556Z,9.90
2023-03-26T09:19:47.833Z,9.96
2023-03-26T09:20:56.897Z,10.03
2023-03-26T09:22:06.096Z,9.95
2023-03-26T09:22:59.328Z,10.04
2023-03-26T09:23:41.468Z,10.24
2023-03-26T09:24:35.896Z,10.35
2023-03-26T09:25:27.876Z,10.41
2023-03-26T09:26:11.690Z,10.56
2023-03-26T09:26:55.231Z,10.73
2023-03-26T09:27:57.833Z,10.87
2023-03-26T09:28:42.908Z,11.13
2023-03-26T09:30:00.640Z,11.37
2023-03-26T09:31:14.891Z,11.46
2023-03-26T09:32:15.921Z,11.58
2023-03-26T09:32:52.224Z,11.65
2023-03-26T09:33:42.930Z,11.70
2023-03-26T09:34:34.852Z,11.78
2023-03-26T09:35:33.708Z,11.87
2023-03-26T09:36:37.466Z,11.83
2023-03-26T09:37:25.855Z,11.84
2023-03-26T09:38:36.581Z,11.84
2023-03-26T09:39:28.352Z,11.73
2023-03-26T09:40:17.670Z,11.74
2023-03-26T09:41:13.052Z,11.76
2023-03-26T09:42:09.493Z,11.79
2023-03-26T09:43:01.173Z,11.80
2023-03-26T09:43:52.276Z,11.85
2023-03-26T09:44:37.144Z,11.89
2023-03-26T09:45:40.396Z,11.87
2023-03-26T09:46:31.737Z,11.95
2023-03-26T09:47:37.004Z,11.98